Time;durP1;ratioP1;P1;durP2;ratioP2;P2;SDS_P1;SDS_P2;PMS_P1;PMS_P2;Temp;Humidity;BMP_temperature;BMP_pressure;BME280_temperature;BME280_humidity;BME280_pressure;Samples;Min_cycle;Max_cycle;Signal;HPM_P1;HPM_P2
2023/12/12 00:01:23;;;;;;;25.10;17.40;;;;;;;10.35;49.26;101462.63;107196;1266;25362;-55
2023/12/12 00:03:51;;;;;;;25.70;17.70;;;;;;;10.37;49.36;101466.77;107057;1263;22611;-55
2023/12/12 00:06:18;;;;;;;23.10;17.00;;;;;;;10.38;49.38;101469.90;107111;1255;23123;-55
2023/12/12 00:08:45;;;;;;;23.20;16.90;;;;;;;10.38;49.34;101470.41;107163;1258;24272;-55
2023/12/12 00:11:12;;;;;;;23.00;17.10;;;;;;;10.39;49.42;101474.91;107100;1266;25328;-55
2023/12/12 00:13:39;;;;;;;24.90;17.40;;;;;;;10.39;49.50;101479.59;107106;1264;25415;-55
2023/12/12 00:16:07;;;;;;;21.90;16.20;;;;;;;10.40;49.60;101472.98;107174;1264;25375;-55
2023/12/12 00:18:35;;;;;;;20.90;16.00;;;;;;;10.41;49.43;101473.67;106734;1263;25415;-55
2023/12/12 00:21:03;;;;;;;24.00;16.70;;;;;;;10.42;49.38;101476.09;107074;1250;22524;-55
2023/12/12 00:23:30;;;;;;;23.30;16.40;;;;;;;10.43;49.26;101471.57;107172;1256;25338;-55
2023/12/12 00:25:58;;;;;;;24.30;17.10;;;;;;;10.44;49.33;101466.71;106353;1257;1002999;-55
2023/12/12 00:28:25;;;;;;;25.60;17.60;;;;;;;10.44;49.35;101463.77;106808;1273;25458;-56
2023/12/12 00:30:52;;;;;;;23.60;17.10;;;;;;;10.45;49.47;101469.64;107172;1251;25255;-55
2023/12/12 00:33:19;;;;;;;24.60;17.40;;;;;;;10.46;49.50;101475.36;107120;1260;25386;-55
2023/12/12 00:35:47;;;;;;;22.80;17.10;;;;;;;10.47;49.59;101474.13;106245;1274;1003571;-55
2023/12/12 00:38:14;;;;;;;23.40;16.60;;;;;;;10.47;49.63;101470.66;107072;1253;25873;-55
2023/12/12 00:40:41;;;;;;;25.00;16.60;;;;;;;10.48;49.56;101470.83;107145;1257;25825;-55
2023/12/12 00:43:08;;;;;;;26.90;18.00;;;;;;;10.51;49.49;101473.40;107055;1269;24381;-55
2023/12/12 00:45:35;;;;;;;23.90;17.00;;;;;;;10.56;49.40;101478.39;107154;1263;25344;-55
2023/12/12 00:48:03;;;;;;;24.50;16.70;;;;;;;10.57;49.42;101476.83;107081;1257;25354;-55
2023/12/12 00:50:30;;;;;;;23.90;16.00;;;;;;;10.58;49.40;101471.26;107034;1263;25334;-55
2023/12/12 00:52:57;;;;;;;21.70;16.10;;;;;;;10.58;49.43;101462.23;107083;1267;25372;-55
2023/12/12 00:55:24;;;;;;;24.90;17.10;;;;;;;10.57;49.41;101452.18;106384;1272;1003483;-55
2023/12/12 00:57:51;;;;;;;24.80;17.00;;;;;;;10.56;49.40;101446.64;107111;1271;25420;-55
2023/12/12 01:00:18;;;;;;;23.10;16.60;;;;;;;10.51;49.51;101443.38;107139;1270;25493;-55
2023/12/12 01:02:45;;;;;;;24.80;17.00;;;;;;;10.49;49.49;101441.15;107046;1257;25375;-55
2023/12/12 01:05:13;;;;;;;26.10;17.00;;;;;;;10.47;49.58;101442.91;107102;1263;23178;-55
2023/12/12 01:07:40;;;;;;;25.80;17.60;;;;;;;10.46;49.63;101442.77;107124;1254;22521;-55
2023/12/12 01:10:07;;;;;;;25.00;17.60;;;;;;;10.51;49.51;101443.05;107070;1260;25346;-55
2023/12/12 01:12:35;;;;;;;23.70;16.40;;;;;;;10.51;49.62;101436.45;107031;1256;22582;-55
2023/12/12 01:15:03;;;;;;;26.50;17.60;;;;;;;10.49;49.70;101428.14;107081;1257;22526;-55
2023/12/12 01:17:31;;;;;;;24.90;17.60;;;;;;;10.53;49.72;101422.04;106879;1266;25603;-55
2023/12/12 01:19:58;;;;;;;24.80;17.50;;;;;;;10.54;49.72;101420.11;107106;1257;24221;-55
2023/12/12 01:22:25;;;;;;;24.90;16.90;;;;;;;10.54;49.66;101417.52;107144;1267;25538;-55
2023/12/12 01:24:52;;;;;;;26.30;18.40;;;;;;;10.55;49.73;101417.34;107074;1257;25487;-55
2023/12/12 01:27:19;;;;;;;26.50;17.60;;;;;;;10.54;49.91;101406.23;106379;1258;1003172;-55
2023/12/12 01:29:47;;;;;;;24.20;16.80;;;;;;;10.53;49.71;101405.55;107080;1256;25465;-55
2023/12/12 01:32:13;;;;;;;21.00;15.40;;;;;;;10.51;49.75;101405.05;107123;1257;25363;-55
2023/12/12 01:34:40;;;;;;;20.90;14.70;;;;;;;10.51;49.73;101399.33;107063;1268;25349;-55
2023/12/12 01:37:07;;;;;;;21.90;15.50;;;;;;;10.48;49.60;101395.53;107111;1256;24268;-55
2023/12/12 01:39:34;;;;;;;21.10;15.40;;;;;;;10.46;49.55;101396.44;107121;1263;25355;-55
2023/12/12 01:42:02;;;;;;;22.30;15.00;;;;;;;10.43;49.72;101403.07;107075;1257;24297;-55
2023/12/12 01:44:29;;;;;;;24.00;16.10;;;;;;;10.40;49.96;101406.39;106848;1260;25545;-55
2023/12/12 01:46:56;;;;;;;22.30;16.00;;;;;;;10.39;50.05;101402.93;106980;1255;25344;-55
2023/12/12 01:49:23;;;;;;;24.10;15.90;;;;;;;10.38;50.14;101396.19;107146;1257;25429;-55
2023/12/12 01:51:50;;;;;;;26.90;16.50;;;;;;;10.38;50.15;101396.53;107059;1257;25346;-55
2023/12/12 01:54:18;;;;;;;24.70;16.90;;;;;;;10.38;50.27;101387.86;106303;1269;1015605;-55
2023/12/12 01:56:46;;;;;;;24.30;16.90;;;;;;;10.38;50.33;101394.27;107026;1256;25373;-55
2023/12/12 01:59:13;;;;;;;26.80;16.90;;;;;;;10.39;50.39;101399.28;107064;1257;25398;-55
2023/12/12 02:01:40;;;;;;;28.50;17.00;;;;;;;10.39;50.41;101403.80;106872;1273;25465;-55
2023/12/12 02:04:07;;;;;;;27.30;19.30;;;;;;;10.39;50.44;101404.48;107140;1257;25459;-55
2023/12/12 02:06:34;;;;;;;24.70;17.60;;;;;;;10.40;50.63;101404.14;107178;1258;25421;-55
2023/12/12 02:09:01;;;;;;;25.50;18.50;;;;;;;10.39;50.75;101401.19;107011;1257;25484;-55
2023/12/12 02:11:29;;;;;;;28.70;17.90;;;;;;;10.40;50.87;101403.95;107049;1257;25365;-55
2023/12/12 02:13:56;;;;;;;23.20;17.10;;;;;;;10.43;50.90;101399.08;107109;1257;25366;-55
2023/12/12 02:16:23;;;;;;;23.80;16.50;;;;;;;10.46;50.99;101396.95;106760;1261;25468;-55
2023/12/12 02:18:50;;;;;;;27.90;17.60;;;;;;;10.48;50.94;101397.45;106905;1260;25456;-55
2023/12/12 02:21:20;;;;;;;27.20;18.20;;;;;;;10.51;51.01;101395.69;107078;1255;22550;-55
2023/12/12 02:23:47;;;;;;;27.10;18.60;;;;;;;10.53;51.08;101392.38;106978;1258;25471;-55
2023/12/12 02:26:14;;;;;;;29.60;17.40;;;;;;;10.53;51.07;101388.55;107014;1257;25545;-55
2023/12/12 02:28:41;;;;;;;27.60;17.30;;;;;;;10.55;51.11;101377.08;106186;1270;1003304;-55
2023/12/12 02:31:09;;;;;;;26.60;18.50;;;;;;;10.57;51.11;101369.77;106978;1254;25379;-55
2023/12/12 02:33:36;;;;;;;28.60;17.80;;;;;;;10.60;51.25;101365.23;107017;1251;22643;-55
2023/12/12 02:36:04;;;;;;;27.20;17.80;;;;;;;10.59;51.24;101360.55;107041;1257;25389;-55
2023/12/12 02:38:31;;;;;;;28.30;18.70;;;;;;;10.58;51.16;101351.20;106788;1275;25429;-55
2023/12/12 02:40:58;;;;;;;27.00;18.20;;;;;;;10.58;51.16;101345.30;107036;1266;25359;-55
2023/12/12 02:43:25;;;;;;;30.80;19.90;;;;;;;10.58;51.25;101348.42;106288;1257;1003017;-55
2023/12/12 02:45:52;;;;;;;29.80;18.70;;;;;;;10.57;51.24;101340.29;107117;1256;22621;-55
2023/12/12 02:48:19;;;;;;;26.30;19.10;;;;;;;10.59;51.32;101336.79;107181;1261;25372;-56
2023/12/12 02:50:46;;;;;;;27.00;19.00;;;;;;;10.58;51.31;101333.50;107055;1257;25398;-55
2023/12/12 02:53:13;;;;;;;27.50;18.10;;;;;;;10.56;51.22;101334.39;106876;1258;25347;-55
2023/12/12 02:55:40;;;;;;;25.90;17.00;;;;;;;10.54;51.24;101334.59;106862;1258;25373;-55
2023/12/12 02:58:07;;;;;;;27.50;17.70;;;;;;;10.53;51.33;101337.05;107158;1251;22656;-55
2023/12/12 03:00:34;;;;;;;27.20;17.50;;;;;;;10.53;51.26;101339.64;107140;1251;24386;-55
2023/12/12 03:03:01;;;;;;;26.90;17.30;;;;;;;10.54;51.34;101344.48;107004;1260;25406;-55
2023/12/12 03:05:28;;;;;;;37.60;21.00;;;;;;;10.53;51.41;101341.54;107049;1264;25338;-56
2023/12/12 03:07:55;;;;;;;34.90;20.50;;;;;;;10.54;51.42;101345.52;107078;1254;23348;-55
2023/12/12 03:10:22;;;;;;;28.30;18.20;;;;;;;10.55;51.30;101344.83;107059;1251;22608;-55
2023/12/12 03:12:49;;;;;;;26.50;17.20;;;;;;;10.54;51.41;101336.50;106862;1260;25337;-56
2023/12/12 03:15:16;;;;;;;29.10;18.50;;;;;;;10.51;51.41;101330.98;106342;1254;1002442;-55
2023/12/12 03:17:43;;;;;;;27.40;18.30;;;;;;;10.49;51.50;101329.61;107116;1261;25337;-55
2023/12/12 03:20:11;;;;;;;27.20;17.50;;;;;;;10.50;51.57;101329.27;106412;1257;1003090;-55
2023/12/12 03:22:38;;;;;;;27.00;17.80;;;;;;;10.51;51.57;101334.45;107148;1254;25347;-55
2023/12/12 03:25:06;;;;;;;28.40;18.80;;;;;;;10.51;51.54;101338.27;106930;1267;25424;-55
2023/12/12 03:27:32;;;;;;;28.80;19.50;;;;;;;10.51;51.63;101333.92;107141;1258;25278;-55
2023/12/12 03:30:01;;;;;;;26.80;17.80;;;;;;;10.48;51.71;101337.77;107094;1256;24348;-55
2023/12/12 03:32:29;;;;;;;26.20;17.70;;;;;;;10.50;51.70;101341.58;107118;1254;25430;-55
2023/12/12 03:34:56;;;;;;;26.80;18.70;;;;;;;10.50;51.82;101335.69;106803;1254;22636;-56
2023/12/12 03:37:22;;;;;;;29.10;18.60;;;;;;;10.51;51.72;101332.89;106312;1263;1003540;-55
2023/12/12 03:39:49;;;;;;;26.10;17.10;;;;;;;10.53;51.88;101328.71;107173;1254;25364;-55
2023/12/12 03:42:16;;;;;;;26.30;17.20;;;;;;;10.56;51.85;101330.92;106907;1255;25401;-55
2023/12/12 03:44:44;;;;;;;29.20;18.90;;;;;;;10.60;51.91;101326.37;106967;1252;25347;-55
2023/12/12 03:47:10;;;;;;;32.50;20.10;;;;;;;10.64;51.85;101327.19;107048;1265;25402;-55
2023/12/12 03:49:39;;;;;;;35.60;21.50;;;;;;;10.65;51.74;101326.98;106756;1257;25372;-55
2023/12/12 03:52:06;;;;;;;44.60;25.20;;;;;;;10.69;51.75;101321.04;106828;1258;25487;-55
2023/12/12 03:54:33;;;;;;;57.00;30.70;;;;;;;10.72;51.76;101320.47;106759;1257;25369;-55
2023/12/12 03:57:00;;;;;;;46.20;27.00;;;;;;;10.75;51.78;101328.41;106588;1255;25396;-55
2023/12/12 03:59:27;;;;;;;48.40;27.30;;;;;;;10.77;51.83;101328.05;107074;1257;22703;-55
2023/12/12 04:01:54;;;;;;;44.30;25.30;;;;;;;10.80;51.81;101325.91;106994;1260;24226;-55
2023/12/12 04:04:21;;;;;;;40.10;24.70;;;;;;;10.83;51.99;101319.45;107043;1256;25411;-55
2023/12/12 04:06:48;;;;;;;37.50;23.80;;;;;;;10.85;51.92;101315.61;107268;1257;25338;-55
2023/12/12 04:09:16;;;;;;;38.20;23.20;;;;;;;10.86;51.97;101315.06;107082;1251;24508;-55
2023/12/12 04:11:43;;;;;;;34.80;22.40;;;;;;;10.86;52.13;101313.52;107104;1267;25375;-55
2023/12/12 04:14:10;;;;;;;32.30;22.40;;;;;;;10.86;52.03;101318.90;107067;1256;25398;-55
2023/12/12 04:16:38;;;;;;;31.10;21.00;;;;;;;10.86;52.01;101321.48;106911;1267;25386;-55
2023/12/12 04:19:05;;;;;;;29.60;20.40;;;;;;;10.88;52.08;101313.65;106852;1273;25408;-55
2023/12/12 04:21:33;;;;;;;30.50;19.70;;;;;;;10.92;52.08;101314.28;107074;1251;25337;-56
2023/12/12 04:24:00;;;;;;;32.40;20.50;;;;;;;10.96;52.03;101312.16;106796;1275;25347;-55
2023/12/12 04:26:29;;;;;;;28.60;19.60;;;;;;;10.99;52.11;101318.54;106746;1267;25411;-55
2023/12/12 04:28:56;;;;;;;28.50;20.10;;;;;;;11.01;52.14;101310.17;107182;1254;22524;-55
2023/12/12 04:31:23;;;;;;;28.90;19.20;;;;;;;11.03;52.12;101306.14;105936;1264;1003559;-55
2023/12/12 04:33:50;;;;;;;28.90;19.20;;;;;;;11.04;52.22;101306.84;107054;1257;25497;-55
2023/12/12 04:36:17;;;;;;;38.30;22.10;;;;;;;11.04;52.15;101307.71;106890;1257;25363;-56
2023/12/12 04:38:44;;;;;;;34.60;21.10;;;;;;;11.05;52.15;101306.98;107130;1251;24648;-55
2023/12/12 04:41:11;;;;;;;36.70;21.50;;;;;;;11.04;52.21;101303.70;107051;1260;23906;-54
2023/12/12 04:43:38;;;;;;;28.20;19.40;;;;;;;11.05;52.19;101299.52;107173;1251;25356;-55
2023/12/12 04:46:06;;;;;;;29.90;19.00;;;;;;;11.07;52.34;101296.02;107091;1254;25529;-55
2023/12/12 04:48:33;;;;;;;27.90;19.30;;;;;;;11.08;52.31;101302.95;107092;1257;25401;-55
2023/12/12 04:51:00;;;;;;;30.60;20.40;;;;;;;11.09;52.33;101304.50;107201;1255;25414;-55
2023/12/12 04:53:27;;;;;;;26.20;18.20;;;;;;;11.11;52.42;101298.72;106913;1257;25391;-55
2023/12/12 04:55:54;;;;;;;26.80;18.10;;;;;;;11.14;52.41;101294.00;106898;1258;25462;-55
2023/12/12 04:58:21;;;;;;;27.70;18.70;;;;;;;11.14;52.48;101298.67;107083;1258;25390;-55
2023/12/12 05:00:48;;;;;;;25.00;17.40;;;;;;;11.16;52.43;101301.95;107191;1250;22524;-55
2023/12/12 05:03:16;;;;;;;27.30;17.80;;;;;;;11.16;52.56;101303.17;107157;1257;25420;-55
2023/12/12 05:05:44;;;;;;;24.80;17.80;;;;;;;11.17;52.49;101302.66;107034;1260;25337;-56
2023/12/12 05:08:11;;;;;;;29.50;19.10;;;;;;;11.18;52.56;101298.45;107099;1256;25356;-55
2023/12/12 05:10:38;;;;;;;23.40;16.90;;;;;;;11.21;52.63;101304.14;107151;1257;23909;-55
2023/12/12 05:13:06;;;;;;;27.00;18.50;;;;;;;11.25;52.64;101300.42;107173;1260;25446;-55
2023/12/12 05:15:33;;;;;;;23.40;16.20;;;;;;;11.29;52.58;101292.73;107077;1260;25462;-55
2023/12/12 05:18:00;;;;;;;24.10;17.50;;;;;;;11.31;52.60;101292.15;106768;1263;24366;-55
2023/12/12 05:20:27;;;;;;;24.90;17.30;;;;;;;11.32;52.61;101291.10;107158;1256;25350;-55
2023/12/12 05:22:55;;;;;;;23.70;16.50;;;;;;;11.32;52.59;101300.66;107115;1251;25419;-55
2023/12/12 05:25:22;;;;;;;26.80;17.40;;;;;;;11.32;52.87;101299.97;106789;1262;25338;-55
2023/12/12 05:27:52;;;;;;;26.30;18.00;;;;;;;11.34;52.96;101295.92;107083;1253;22536;-56
2023/12/12 05:30:19;;;;;;;23.80;17.60;;;;;;;11.37;52.90;101291.89;107070;1251;22569;-55
2023/12/12 05:32:46;;;;;;;23.20;15.80;;;;;;;11.38;52.94;101291.35;107042;1254;25366;-55
2023/12/12 05:35:14;;;;;;;22.00;16.10;;;;;;;11.37;52.91;101289.09;107123;1251;25328;-55
2023/12/12 05:37:41;;;;;;;24.40;17.00;;;;;;;11.37;53.01;101288.58;106903;1256;25351;-55
2023/12/12 05:40:08;;;;;;;20.70;15.20;;;;;;;11.39;53.02;101285.42;107127;1264;25405;-55
2023/12/12 05:42:35;;;;;;;21.30;16.20;;;;;;;11.41;53.12;101282.98;107123;1250;23862;-55
2023/12/12 05:45:03;;;;;;;26.60;17.20;;;;;;;11.40;53.20;101281.94;107203;1260;23004;-55
2023/12/12 05:47:32;;;;;;;23.20;16.70;;;;;;;11.39;53.21;101280.75;107067;1254;25325;-55
2023/12/12 05:50:00;;;;;;;22.50;17.10;;;;;;;11.38;53.28;101283.19;107052;1257;25347;-54
2023/12/12 05:52:27;;;;;;;25.80;17.80;;;;;;;11.42;53.38;101282.25;107086;1257;25366;-55
2023/12/12 05:54:54;;;;;;;23.40;18.70;;;;;;;11.48;53.40;101288.58;107032;1256;22774;-56
2023/12/12 05:57:21;;;;;;;26.90;20.60;;;;;;;11.56;53.30;101287.23;107057;1256;25303;-55
2023/12/12 05:59:48;;;;;;;25.40;18.70;;;;;;;11.69;53.07;101289.09;107166;1257;25376;-55
2023/12/12 06:02:15;;;;;;;24.60;17.90;;;;;;;11.91;52.54;101293.22;107086;1252;22559;-56
2023/12/12 06:04:46;;;;;;;25.90;18.70;;;;;;;11.66;53.34;101299.22;106410;1254;1003284;-55
2023/12/12 06:07:13;;;;;;;23.70;16.70;;;;;;;11.66;53.47;101301.67;106853;1257;25405;-55
2023/12/12 06:09:41;;;;;;;26.40;17.10;;;;;;;11.69;53.53;101301.64;107232;1263;25350;-56
2023/12/12 06:12:08;;;;;;;27.20;19.10;;;;;;;11.71;53.53;101303.16;107147;1254;22776;-55
2023/12/12 06:14:35;;;;;;;27.70;19.00;;;;;;;11.73;53.42;101302.25;107118;1255;25455;-56
2023/12/12 06:17:02;;;;;;;26.40;19.10;;;;;;;11.75;53.41;101305.51;107121;1250;25273;-55
2023/12/12 06:19:30;;;;;;;25.10;18.60;;;;;;;11.79;53.45;101305.79;107080;1254;25331;-55
2023/12/12 06:21:57;;;;;;;23.70;18.20;;;;;;;11.83;53.40;101305.55;107056;1252;25347;-55
2023/12/12 06:24:24;;;;;;;24.40;18.40;;;;;;;11.80;53.14;101300.91;106939;1267;25450;-56
2023/12/12 06:26:51;;;;;;;26.10;18.80;;;;;;;11.71;53.26;101306.64;106858;1254;25366;-56
2023/12/12 06:29:18;;;;;;;22.70;17.50;;;;;;;11.67;53.45;101315.39;107130;1270;25519;-55
2023/12/12 06:31:45;;;;;;;24.00;17.90;;;;;;;11.70;53.62;101319.16;107149;1257;25346;-56
2023/12/12 06:34:13;;;;;;;26.20;17.80;;;;;;;11.71;53.46;101328.70;107125;1251;25414;-55
2023/12/12 06:36:41;;;;;;;31.90;21.90;;;;;;;11.66;53.42;101332.42;107145;1260;25376;-55
2023/12/12 06:39:10;;;;;;;31.30;20.80;;;;;;;11.61;53.29;101338.04;107139;1264;25490;-55
2023/12/12 06:41:37;;;;;;;32.30;22.20;;;;;;;11.61;53.02;101333.53;107098;1251;22536;-55
2023/12/12 06:44:04;;;;;;;33.10;21.70;;;;;;;11.61;52.99;101338.58;107114;1251;24277;-55
2023/12/12 06:46:32;;;;;;;31.10;20.50;;;;;;;11.63;52.83;101339.23;107084;1266;25347;-55
2023/12/12 06:48:59;;;;;;;32.30;20.80;;;;;;;11.63;52.62;101340.45;106166;1263;1003758;-56
2023/12/12 06:51:30;;;;;;;29.60;20.20;;;;;;;11.59;52.37;101336.89;107073;1257;22530;-55
2023/12/12 06:53:58;;;;;;;31.80;20.60;;;;;;;11.55;52.44;101344.41;107084;1263;25526;-55
2023/12/12 06:56:26;;;;;;;31.00;20.20;;;;;;;11.52;52.48;101347.42;107125;1254;25366;-55
2023/12/12 06:58:52;;;;;;;32.00;20.70;;;;;;;11.51;52.51;101338.21;107071;1253;22698;-55
2023/12/12 07:01:20;;;;;;;33.60;22.40;;;;;;;11.50;52.35;101334.40;107138;1255;25415;-55
2023/12/12 07:03:47;;;;;;;33.90;21.60;;;;;;;11.42;52.18;101326.90;106758;1266;25362;-55
2023/12/12 07:06:18;;;;;;;33.90;22.60;;;;;;;11.29;51.97;101328.48;107162;1263;25459;-56
2023/12/12 07:08:46;;;;;;;30.50;20.70;;;;;;;11.15;52.35;101338.61;106376;1256;1003051;-56
2023/12/12 07:11:15;;;;;;;33.70;22.00;;;;;;;11.09;52.70;101339.91;107115;1253;22565;-55
2023/12/12 07:13:42;;;;;;;35.80;23.00;;;;;;;11.08;52.95;101339.41;107074;1262;25335;-55
2023/12/12 07:16:12;;;;;;;32.40;21.50;;;;;;;11.10;52.96;101342.33;106844;1259;25363;-55
2023/12/12 07:18:39;;;;;;;29.90;21.00;;;;;;;11.10;52.96;101341.98;107141;1256;25414;-55
2023/12/12 07:21:06;;;;;;;33.70;21.90;;;;;;;11.09;52.89;101344.77;106829;1258;25338;-55
2023/12/12 07:23:34;;;;;;;34.40;23.50;;;;;;;11.09;53.01;101338.35;107145;1254;26117;-55
2023/12/12 07:26:01;;;;;;;32.50;22.50;;;;;;;11.08;53.04;101344.09;107154;1257;25347;-55
2023/12/12 07:28:28;;;;;;;39.70;24.80;;;;;;;11.06;53.01;101345.52;107152;1250;25497;-55
2023/12/12 07:30:56;;;;;;;35.80;23.10;;;;;;;11.11;53.21;101347.69;107008;1257;25813;-55
2023/12/12 07:33:24;;;;;;;35.30;23.00;;;;;;;11.19;53.20;101350.36;107216;1259;22540;-55
2023/12/12 07:35:51;;;;;;;36.30;23.00;;;;;;;11.23;52.98;101349.07;107045;1256;25338;-55
2023/12/12 07:38:18;;;;;;;37.10;23.80;;;;;;;11.25;53.07;101348.88;106883;1267;25347;-55
2023/12/12 07:40:45;;;;;;;35.10;23.70;;;;;;;11.29;52.99;101347.08;107062;1257;22555;-56
2023/12/12 07:43:12;;;;;;;35.80;22.80;;;;;;;11.32;52.81;101346.33;107082;1251;24361;-55
2023/12/12 07:45:39;;;;;;;37.10;24.30;;;;;;;11.34;52.81;101343.86;107029;1258;24354;-55
2023/12/12 07:48:06;;;;;;;32.90;22.30;;;;;;;11.38;52.78;101337.91;107075;1251;25372;-55
2023/12/12 07:50:34;;;;;;;36.00;23.90;;;;;;;11.36;52.34;101330.11;107122;1257;25420;-55
2023/12/12 07:53:01;;;;;;;34.40;22.80;;;;;;;11.30;52.34;101322.92;107189;1265;25356;-55
2023/12/12 07:55:28;;;;;;;34.40;22.50;;;;;;;11.20;52.18;101322.90;107169;1257;25375;-55
2023/12/12 07:57:55;;;;;;;34.10;23.50;;;;;;;11.11;52.43;101319.92;106379;1257;1002999;-55
2023/12/12 08:00:22;;;;;;;33.70;23.20;;;;;;;11.06;52.66;101317.39;107067;1260;22529;-55
2023/12/12 08:02:50;;;;;;;38.40;23.90;;;;;;;11.07;52.92;101315.98;107136;1253;25462;-55
2023/12/12 08:05:17;;;;;;;36.30;23.00;;;;;;;11.13;52.96;101312.25;107146;1256;25347;-55
2023/12/12 08:07:44;;;;;;;38.30;24.90;;;;;;;11.13;52.84;101311.72;106917;1257;25415;-55
2023/12/12 08:10:11;;;;;;;35.60;24.00;;;;;;;11.13;52.84;101308.07;106848;1259;25347;-55
2023/12/12 08:12:38;;;;;;;30.90;21.30;;;;;;;11.11;52.68;101316.96;106804;1258;24242;-56
2023/12/12 08:15:05;;;;;;;37.70;23.70;;;;;;;11.05;52.86;101316.89;107019;1254;24247;-56
2023/12/12 08:17:32;;;;;;;38.40;24.40;;;;;;;11.01;53.01;101320.93;107157;1256;22530;-55
2023/12/12 08:20:00;;;;;;;38.80;24.50;;;;;;;11.06;53.39;101323.13;106983;1269;25580;-55
2023/12/12 08:22:28;;;;;;;33.40;22.50;;;;;;;11.17;53.57;101327.13;107207;1250;25375;-55
2023/12/12 08:24:56;;;;;;;31.00;22.00;;;;;;;11.25;53.36;101330.83;107111;1256;25456;-55
2023/12/12 08:27:23;;;;;;;35.90;23.50;;;;;;;11.30;53.15;101328.64;107175;1250;25329;-55
2023/12/12 08:29:50;;;;;;;40.20;25.00;;;;;;;11.30;52.81;101326.73;106923;1260;25497;-55
2023/12/12 08:32:17;;;;;;;39.60;26.20;;;;;;;11.25;52.80;101319.35;106876;1267;25378;-55
2023/12/12 08:34:44;;;;;;;42.50;26.90;;;;;;;11.23;52.86;101311.21;107079;1264;25375;-55
2023/12/12 08:37:11;;;;;;;40.50;26.80;;;;;;;11.24;53.00;101305.98;107196;1252;25347;-55
2023/12/12 08:39:39;;;;;;;44.70;27.20;;;;;;;11.29;53.09;101297.23;107087;1257;25375;-55
2023/12/12 08:42:06;;;;;;;42.40;27.00;;;;;;;11.36;52.98;101299.72;107175;1253;25013;-55
2023/12/12 08:44:33;;;;;;;41.10;24.50;;;;;;;11.42;52.95;101303.97;107028;1257;25366;-55
2023/12/12 08:47:00;;;;;;;33.10;22.70;;;;;;;11.45;52.69;101306.35;106810;1268;25673;-56
2023/12/12 08:49:27;;;;;;;36.20;22.20;;;;;;;11.43;52.69;101305.34;106417;1253;1003248;-55
2023/12/12 08:51:54;;;;;;;37.10;23.40;;;;;;;11.45;52.73;101300.63;106801;1267;25427;-55
2023/12/12 08:54:21;;;;;;;36.70;23.60;;;;;;;11.50;52.75;101294.80;107053;1255;24238;-55
2023/12/12 08:56:52;;;;;;;34.80;23.30;;;;;;;11.57;52.59;101290.69;107197;1250;22529;-55
2023/12/12 08:59:21;;;;;;;35.80;24.00;;;;;;;11.61;52.45;101293.21;106910;1266;25484;-55
2023/12/12 09:01:48;;;;;;;41.60;25.10;;;;;;;11.64;52.62;101290.23;107145;1250;22539;-55
2023/12/12 09:04:16;;;;;;;35.80;22.60;;;;;;;11.72;52.53;101290.11;107055;1263;25347;-55
2023/12/12 09:06:46;;;;;;;35.00;22.80;;;;;;;11.72;52.02;101286.45;107123;1255;25506;-55
2023/12/12 09:09:13;;;;;;;37.40;23.70;;;;;;;11.67;52.16;101285.50;107089;1266;22569;-56
2023/12/12 09:11:40;;;;;;;41.10;25.30;;;;;;;11.70;52.33;101283.89;106714;1259;25351;-55
2023/12/12 09:14:07;;;;;;;41.00;25.10;;;;;;;11.78;52.26;101286.34;106712;1256;25500;-55
2023/12/12 09:16:35;;;;;;;39.00;25.20;;;;;;;11.82;52.06;101285.59;107198;1254;25433;-55
2023/12/12 09:19:02;;;;;;;37.20;24.70;;;;;;;11.85;51.83;101287.80;106893;1272;24371;-55
2023/12/12 09:21:29;;;;;;;39.20;25.70;;;;;;;11.84;51.71;101290.05;107175;1256;25433;-55
2023/12/12 09:23:56;;;;;;;39.90;25.90;;;;;;;11.83;51.63;101293.91;107129;1250;22944;-55
2023/12/12 09:26:23;;;;;;;40.00;25.20;;;;;;;11.82;51.57;101293.23;107146;1254;25408;-55
2023/12/12 09:28:51;;;;;;;43.70;24.20;;;;;;;11.84;51.66;101290.42;107098;1251;25356;-53
2023/12/12 09:31:28;;;;;;;35.70;24.90;;;;;;;11.86;51.58;101288.12;107067;1254;22532;-55
2023/12/12 09:33:55;;;;;;;44.70;25.40;;;;;;;11.87;51.61;101291.40;107143;1251;22535;-55
2023/12/12 09:36:23;;;;;;;36.80;24.00;;;;;;;11.90;51.81;101287.67;106107;1259;1003077;-55
2023/12/12 09:38:50;;;;;;;37.30;25.40;;;;;;;11.92;51.58;101289.04;106855;1256;25347;-55
2023/12/12 09:41:22;;;;;;;37.90;25.20;;;;;;;11.92;51.58;101291.30;107118;1256;25389;-55
2023/12/12 09:43:49;;;;;;;;;;;;;;;11.92;51.63;101290.59;106114;1267;1002990;-55
2023/12/12 09:46:17;;;;;;;35.90;23.10;;;;;;;11.97;51.63;101286.34;107065;1250;25366;-55
2023/12/12 09:48:45;;;;;;;36.00;23.70;;;;;;;12.01;51.63;101283.13;107170;1262;22620;-55
2023/12/12 09:51:12;;;;;;;35.80;23.30;;;;;;;12.04;51.55;101284.30;107105;1251;25372;-55
2023/12/12 09:53:46;;;;;;;36.50;24.60;;;;;;;12.04;51.42;101286.38;107035;1254;25347;-55
2023/12/12 09:56:17;;;;;;;37.60;25.30;;;;;;;12.05;51.51;101287.92;107097;1251;25505;-55
2023/12/12 09:58:48;;;;;;;35.50;22.10;;;;;;;12.06;51.26;101289.11;107053;1254;25636;-55
2023/12/12 10:01:15;;;;;;;38.10;24.40;;;;;;;12.01;51.43;101284.52;107162;1263;25284;-55
2023/12/12 10:03:43;;;;;;;36.90;24.00;;;;;;;11.98;51.38;101279.52;106805;1270;24283;-55
2023/12/12 10:06:11;;;;;;;37.00;23.80;;;;;;;11.91;51.42;101279.13;107121;1257;25350;-55
2023/12/12 10:08:38;;;;;;;37.20;23.20;;;;;;;11.87;51.57;101282.69;106443;1250;1002944;-55
2023/12/12 10:11:09;;;;;;;33.20;22.40;;;;;;;11.84;51.56;101280.33;107216;1254;22530;-55
2023/12/12 10:13:48;;;;;;;36.50;22.80;;;;;;;11.78;51.87;101280.27;107092;1254;25533;-55
2023/12/12 10:16:15;;;;;;;31.80;21.10;;;;;;;11.74;51.96;101277.55;107181;1250;22607;-55
2023/12/12 10:18:46;;;;;;;36.20;22.20;;;;;;;11.70;52.20;101270.86;107054;1251;25366;-55
2023/12/12 10:21:19;;;;;;;32.80;21.30;;;;;;;11.67;52.33;101274.55;107145;1260;22541;-55
2023/12/12 10:23:47;;;;;;;36.20;23.00;;;;;;;11.65;52.53;101272.81;107117;1263;25368;-55
2023/12/12 10:26:14;;;;;;;34.10;21.90;;;;;;;11.66;52.65;101264.30;107057;1254;22531;-55
2023/12/12 10:28:42;;;;;;;30.70;21.00;;;;;;;11.72;52.73;101259.88;107055;1254;25497;-55
2023/12/12 10:31:09;;;;;;;30.30;20.20;;;;;;;11.77;52.59;101260.98;107106;1253;25375;-55
2023/12/12 10:33:38;;;;;;;32.90;21.30;;;;;;;11.78;52.61;101258.70;106894;1259;25487;-55
2023/12/12 10:36:09;;;;;;;34.00;21.50;;;;;;;11.80;52.63;101260.75;106905;1261;22527;-55
2023/12/12 10:38:38;;;;;;;32.10;21.10;;;;;;;11.82;52.51;101263.33;107039;1254;22785;-55
2023/12/12 10:41:15;;;;;;;31.90;20.80;;;;;;;11.84;52.54;101260.33;107006;1256;22527;-55
2023/12/12 10:43:43;;;;;;;30.60;20.60;;;;;;;11.89;52.49;101255.04;107128;1256;25347;-55
2023/12/12 10:46:12;;;;;;;34.80;21.50;;;;;;;11.93;52.47;101250.59;107098;1254;24247;-55
2023/12/12 10:48:49;;;;;;;28.60;19.70;;;;;;;11.93;52.26;101241.20;107062;1254;22754;-55
2023/12/12 10:51:18;;;;;;;32.20;20.10;;;;;;;11.88;52.16;101246.69;106922;1250;26630;-55
2023/12/12 10:53:46;;;;;;;30.00;21.30;;;;;;;11.83;52.09;101249.58;106904;1251;22527;-55
2023/12/12 10:56:14;;;;;;;28.10;19.30;;;;;;;11.78;52.27;101253.32;106102;1254;1002851;-55
2023/12/12 10:58:42;;;;;;;29.50;20.50;;;;;;;11.74;52.25;101249.56;106840;1250;25363;-54
2023/12/12 11:01:12;;;;;;;28.10;19.30;;;;;;;11.72;52.44;101255.52;106660;1257;25274;-54
2023/12/12 11:03:40;;;;;;;28.50;20.00;;;;;;;11.71;52.52;101253.95;106853;1257;25410;-55